Terminal Aerodrome Forecast
Issued by NWS

Home | Current Version | Previous Version | Text Only | Print | Product List | Glossary On
Versions: 1 2 3 4 5 6 7 8 9 10 11 12 13 14 15
000
FTUS44 KOHX 191100
TAFCKV
TAF
KCKV 191121Z 1912/2012 04005KT P6SM SCT250
     FM191500 05008G16KT P6SM FEW250
     FM200000 04003KT P6SM SKC=

USA.gov is the U.S. government's official web portal to all federal, state and local government web resources and services.